Flight Track Log - Related Links

Times and Time Zones

All times are in EDT time to prevent confusion due to time zone crossing. See the N55VF flight status page for this flight to view local times or setup timezone preferences in your user account.


Time Position Orientation Groundspeed Altitude Reporting Facility
EDT Latitude Longitude Course Direction KTS MPH feet Rate Location/Type
Sat 12:30:27 PM 38.0719 -91.5536 242° Southwest 158 182 4,500  Level Kansas City Center
Sat 12:31:28 PM 38.0456 -91.6197 243° Southwest 167 192 4,900 384 Climbing Kansas City Center
Sat 12:32:32 PM 38.0214 -91.6797 243° Southwest 179 206 5,300 387 Climbing Kansas City Center
Sat 12:33:32 PM 37.9978 -91.7372 242° Southwest 183 211 5,700 397 Climbing Kansas City Center
Sat 12:34:33 PM 37.9747 -91.7936 243° Southwest 181 208 6,100 336 Climbing Kansas City Center
Sat 12:35:37 PM 37.9519 -91.8492 243° Southwest 180 207 6,400 339 Climbing Kansas City Center
Sat 12:36:37 PM 37.9292 -91.9069 243° Southwest 181 208 6,800 393 Climbing Kansas City Center
Sat 12:37:39 PM 37.9061 -91.9617 242° Southwest 177 204 7,200 341 Climbing Kansas City Center
Sat 12:38:40 PM 37.8847 -92.0150 243° Southwest 172 198 7,500 242 Climbing Kansas City Center
Sat 12:39:43 PM 37.8628 -92.0692 243° Southwest 172 198 7,700 242 Climbing Kansas City Center
Sat 12:40:44 PM 37.8364 -92.1331 242° Southwest 170 196 8,000 145 Climbing Kansas City Center
Sat 12:41:47 PM 37.8136 -92.1903 243° Southwest 178 205 8,000  Level Kansas City Center
Sat 12:42:48 PM 37.7889 -92.2489 242° Southwest 184 212 8,000  Level Kansas City Center
Sat 12:43:49 PM 37.7644 -92.3072 242° Southwest 185 213 8,000  Level Kansas City Center
Sat 12:44:50 PM 37.7411 -92.3656 243° Southwest 185 213 8,000 -14 Level Kansas City Center
Sat 12:50:50 PM 37.5940 -92.7180 243° Southwest 186 214 7,900 -16 Descending FlightAware ADS-B
Sat 12:51:16 PM 37.5850 -92.7390 242° Southwest 186 214 7,900  Level FlightAware ADS-B
Sat 12:51:38 PM 37.5750 -92.7630 242° Southwest 185 213 7,900  Level FlightAware ADS-B
Sat 12:51:59 PM 37.5670 -92.7840 244° Southwest 185 213 7,900  Level FlightAware ADS-B
Sat 12:52:18 PM 37.5590 -92.8010 239° Southwest 186 214 7,900  Level FlightAware ADS-B
Sat 12:52:42 PM 37.5490 -92.8250 242° Southwest 186 214 7,900  Level FlightAware ADS-B
Sat 12:53:02 PM 37.5410 -92.8440 242° Southwest 186 214 7,900  Level FlightAware ADS-B
Sat 12:53:22 PM 37.5330 -92.8640 243° Southwest 186 214 7,900  Level FlightAware ADS-B
Sat 12:53:42 PM 37.5250 -92.8830 242° Southwest 185 213 7,900  Level FlightAware ADS-B
Sat 12:54:06 PM 37.5150 -92.9060 241° Southwest 186 214 7,900  Level FlightAware ADS-B
Sat 12:54:26 PM 37.5070 -92.9250 242° Southwest 187 215 7,900  Level FlightAware ADS-B
Sat 12:54:36 PM 37.5030 -92.9350 243° Southwest 186 214 7,900  Level FlightAware ADS-B
Sat 12:55:02 PM 37.4920 -92.9600 241° Southwest 187 215 7,900  Level FlightAware ADS-B
Sat 12:55:22 PM 37.4840 -92.9790 242° Southwest 187 215 7,900  Level FlightAware ADS-B
Sat 12:55:42 PM 37.4760 -92.9980 242° Southwest 187 215 7,900  Level FlightAware ADS-B
Sat 12:56:02 PM 37.4680 -93.0180 243° Southwest 187 215 7,900  Level FlightAware ADS-B
Sat 12:56:26 PM 37.4580 -93.0410 241° Southwest 187 215 7,900  Level FlightAware ADS-B
Sat 12:56:47 PM 37.4500 -93.0610 243° Southwest 187 215 7,900  Level FlightAware ADS-B
Sat 12:57:07 PM 37.4410 -93.0810 240° Southwest 187 215 7,900  Level FlightAware ADS-B
Sat 12:57:27 PM 37.4330 -93.0990 241° Southwest 186 214 7,900  Level FlightAware ADS-B
Sat 12:57:47 PM 37.4250 -93.1190 243° Southwest 187 215 7,900  Level FlightAware ADS-B
Sat 12:58:12 PM 37.4150 -93.1420 241° Southwest 187 215 7,900  Level FlightAware ADS-B
Sat 12:58:31 PM 37.4070 -93.1610 242° Southwest 185 213 7,900  Level FlightAware ADS-B
Sat 12:58:51 PM 37.3990 -93.1800 242° Southwest 187 215 7,900  Level FlightAware ADS-B
Sat 12:59:11 PM 37.3910 -93.1990 242° Southwest 187 215 7,900  Level FlightAware ADS-B
Sat 12:59:35 PM 37.3820 -93.2220 244° Southwest 186 214 7,900  Level FlightAware ADS-B
Sat 12:59:55 PM 37.3730 -93.2410 239° Southwest 188 216 7,900  Level FlightAware ADS-B
Sat 01:00:13 PM 37.3660 -93.2580 243° Southwest 186 214 7,900  Level FlightAware ADS-B
Sat 01:00:37 PM 37.3560 -93.2810 241° Southwest 187 215 7,900  Level FlightAware ADS-B
Sat 01:00:49 PM 37.3510 -93.2940 244° Southwest 188 216 7,900  Level FlightAware ADS-B
Sat 01:01:09 PM 37.3430 -93.3120 241° Southwest 187 215 7,900  Level FlightAware ADS-B
Sat 01:01:27 PM 37.3350 -93.3300 241° Southwest 188 216 7,900  Level FlightAware ADS-B
Sat 01:01:47 PM 37.3270 -93.3490 242° Southwest 190 219 7,900  Level FlightAware ADS-B
Sat 01:02:07 PM 37.3190 -93.3690 243° Southwest 189 217 7,900  Level FlightAware ADS-B
Sat 01:02:27 PM 37.3100 -93.3890 241° Southwest 189 217 7,900  Level FlightAware ADS-B
Sat 01:02:51 PM 37.3010 -93.4110 243° Southwest 189 217 7,900  Level FlightAware ADS-B
Sat 01:03:09 PM 37.2930 -93.4290 241° Southwest 189 217 7,900  Level FlightAware ADS-B
Sat 01:03:31 PM 37.2840 -93.4500 242° Southwest 189 217 7,900  Level FlightAware ADS-B
Sat 01:03:51 PM 37.2760 -93.4700 243° Southwest 191 220 7,900  Level FlightAware ADS-B
Sat 01:04:15 PM 37.2660 -93.4930 241° Southwest 190 219 7,900  Level FlightAware ADS-B
Sat 01:04:35 PM 37.2570 -93.5120 239° Southwest 189 217 7,900  Level FlightAware ADS-B
Sat 01:04:55 PM 37.2490 -93.5320 243° Southwest 191 220 7,900  Level FlightAware ADS-B
Sat 01:05:17 PM 37.2400 -93.5520 241° Southwest 189 217 7,900  Level FlightAware ADS-B
Sat 01:05:37 PM 37.2310 -93.5720 241° Southwest 190 219 7,900  Level FlightAware ADS-B
Sat 01:06:01 PM 37.2210 -93.5970 243° Southwest 191 220 7,900  Level FlightAware ADS-B
Sat 01:06:21 PM 37.2130 -93.6160 242° Southwest 191 220 7,900  Level FlightAware ADS-B
Sat 01:06:41 PM 37.2050 -93.6350 242° Southwest 191 220 7,900  Level FlightAware ADS-B
Sat 01:07:09 PM 37.1930 -93.6620 241° Southwest 191 220 7,900  Level FlightAware ADS-B
Sat 01:07:29 PM 37.1840 -93.6810 239° Southwest 192 221 7,900  Level FlightAware ADS-B
Sat 01:07:53 PM 37.1740 -93.7060 243° Southwest 191 220 7,900  Level FlightAware ADS-B
Sat 01:08:11 PM 37.1660 -93.7230 239° Southwest 191 220 7,900  Level FlightAware ADS-B
Sat 01:08:33 PM 37.1570 -93.7450 243° Southwest 191 220 7,900  Level FlightAware ADS-B
Sat 01:08:53 PM 37.1490 -93.7640 242° Southwest 190 219 7,900  Level FlightAware ADS-B
Sat 01:09:11 PM 37.1410 -93.7820 241° Southwest 191 220 7,900  Level FlightAware ADS-B
Sat 01:09:37 PM 37.1310 -93.8060 242° Southwest 191 220 7,900  Level FlightAware ADS-B
Sat 01:09:59 PM 37.1210 -93.8290 241° Southwest 191 220 7,900  Level FlightAware ADS-B
Sat 01:10:19 PM 37.1120 -93.8480 239° Southwest 193 222 7,900  Level FlightAware ADS-B
Sat 01:10:39 PM 37.1040 -93.8680 243° Southwest 192 221 7,900  Level FlightAware ADS-B
Sat 01:10:59 PM 37.0950 -93.8870 239° Southwest 191 220 7,900  Level FlightAware ADS-B
Sat 01:11:05 PM 37.0930 -93.8930 247° West 192 221 7,900  Level FlightAware ADS-B
Sat 01:11:43 PM 37.0770 -93.9300 242° Southwest 191 220 7,900  Level FlightAware ADS-B
Sat 01:11:59 PM 37.0700 -93.9460 241° Southwest 191 220 7,900  Level FlightAware ADS-B
Sat 01:12:21 PM 37.0610 -93.9670 242° Southwest 191 220 7,900  Level FlightAware ADS-B
Sat 01:12:45 PM 37.0510 -93.9900 241° Southwest 192 221 7,900  Level FlightAware ADS-B
Sat 01:12:57 PM 37.0450 -94.0020 238° Southwest 191 220 7,900  Level FlightAware ADS-B
Sat 01:13:21 PM 37.0350 -94.0250 241° Southwest 191 220 7,900  Level FlightAware ADS-B
Sat 01:13:41 PM 37.0270 -94.0450 243° Southwest 192 221 7,900  Level FlightAware ADS-B
Sat 01:14:01 PM 37.0180 -94.0640 239° Southwest 191 220 7,900  Level FlightAware ADS-B
Sat 01:14:21 PM 37.0100 -94.0840 243° Southwest 191 220 7,900  Level FlightAware ADS-B
Sat 01:14:51 PM 36.9990 -94.1080 240° Southwest 191 220 7,900  Level FlightAware ADS-B
Sat 01:15:13 PM 36.9880 -94.1340 242° Southwest 191 220 7,900  Level FlightAware ADS-B
Sat 01:15:43 PM 36.9770 -94.1580 240° Southwest 191 220 7,900  Level FlightAware ADS-B
Sat 01:16:01 PM 36.9670 -94.1810 241° Southwest 192 221 7,900  Level FlightAware ADS-B
Sat 01:16:17 PM 36.9610 -94.1960 243° Southwest 193 222 7,900  Level FlightAware ADS-B
Sat 01:16:43 PM 36.9510 -94.2170 239° Southwest 193 222 7,900  Level FlightAware ADS-B
Sat 01:17:31 PM 36.9290 -94.2690 242° Southwest 192 221 7,900  Level FlightAware ADS-B
Sat 01:17:55 PM 36.9180 -94.2920 239° Southwest 193 222 7,900  Level FlightAware ADS-B
Sat 01:18:09 PM 36.9120 -94.3060 242° Southwest 194 223 7,900  Level FlightAware ADS-B
Sat 01:18:36 PM 36.9020 -94.3280 240° Southwest 194 223 7,900 58 Level FlightAware ADS-B
Sat 01:19:53 PM 36.8689 -94.4033 240° Southwest 194 223 8,000 43 Climbing Kansas City Center
Sat 01:20:55 PM 36.8425 -94.4619 241° Southwest 194 223 8,000  Level Kansas City Center
Sat 01:21:56 PM 36.8167 -94.5197 241° Southwest 192 221 8,000  Level Kansas City Center
Sat 01:22:56 PM 36.7908 -94.5781 241° Southwest 192 221 8,000  Level Kansas City Center
Sat 01:23:59 PM 36.7656 -94.6369 242° Southwest 192 221 8,000  Level Kansas City Center
Sat 01:25:02 PM 36.7394 -94.6956 241° Southwest 193 222 8,000  Level Kansas City Center
Sat 01:26:03 PM 36.7139 -94.7531 241° Southwest 192 221 8,000  Level Kansas City Center
Sat 01:27:04 PM 36.6875 -94.8119 241° Southwest 193 222 8,000 -288 Level Kansas City Center
Sat 01:28:08 PM 36.6547 -94.8847 241° Southwest 196 226 7,400 -629 Descending Kansas City Center
Sat 01:29:08 PM 36.6258 -94.9492 241° Southwest 204 235 6,700 -522 Descending Kansas City Center
Sat 01:30:03 PM 36.5981 -95.0114 241° Southwest 221 254 6,400 -281 Descending Kansas City Center
Sat 01:30:12 PM 36.5961 -95.0158 241° Southwest 213 245 6,400 -500 Level Kansas City Center
Sat 01:30:39 PM 36.5808 -95.0531 243° Southwest 216 249 6,100 -393 Descending Kansas City Center
Sat 01:31:13 PM 36.5669 -95.0808 238° Southwest 215 247 6,000 -98 Descending Kansas City Center
Sat 01:31:40 PM 36.5508 -95.1144 239° Southwest 211 243 6,000  Level Kansas City Center
Sat 01:32:15 PM 36.5386 -95.1428 242° Southwest 212 244 6,000 -102 Level Kansas City Center
Sat 01:32:39 PM 36.5228 -95.1756 239° Southwest 200 230 5,900  Descending Kansas City Center
Sat 01:33:16 PM 36.5086 -95.2014 236° Southwest 206 237 6,000 97 Climbing Kansas City Center
Sat 01:33:41 PM 36.4900 -95.2322 233° Southwest 200 230 6,000  Level Kansas City Center
Sat 01:34:17 PM 36.4778 -95.2586 240° Southwest 201 231 6,000 -396 Level Kansas City Center
Sat 01:39:56 PM 36.2930 -95.6070 240° Southwest 3,400 -436 Descending FlightAware ADS-B
Sat 01:40:15 PM 36.2830 -95.6260 237° Southwest 184 212 3,400 -136 Level FlightAware ADS-B
Sat 01:40:40 PM 36.2710 -95.6480 236° Southwest 179 206 3,300  Descending FlightAware ADS-B
Sat 01:40:55 PM 36.2650 -95.6590 236° Southwest 170 196 3,400 122 Climbing FlightAware ADS-B
Sat 01:41:29 PM 36.2530 -95.6800 235° Southwest 169 194 3,400 -237 Level FlightAware ADS-B
Sat 01:42:11 PM 36.2320 -95.7200 237° Southwest 175 201 3,100 -529 Descending FlightAware ADS-B
Sat 01:42:37 PM 36.2220 -95.7440 243° Southwest 185 213 2,800 -783 Descending FlightAware ADS-B
Sat 01:42:57 PM 36.2150 -95.7610 243° Southwest 188 216 2,500 -686 Descending FlightAware ADS-B
Sat 01:43:12 PM 36.2070 -95.7750 235° Southwest 182 209 2,400 -353 Descending FlightAware ADS-B
Sat 01:43:31 PM 36.1960 -95.7900 228° Southwest 178 205 2,300  Descending FlightAware ADS-B
Sat 01:43:52 PM 36.1850 -95.8040 226° Southwest 164 189 2,400 171 Climbing FlightAware ADS-B
Sat 01:44:06 PM 36.1780 -95.8160 234° Southwest 156 180 2,400  Level FlightAware ADS-B
Sat 01:44:17 PM 36.1760 -95.8200 238° Southwest 147 169 2,400 -840 Level FlightAware ADS-B
Sat 01:44:56 PM 36.1710 -95.8550 260° West 139 160 1,700 -658 Descending FlightAware ADS-B
Sat 01:45:30 PM 36.1680 -95.8770 260° West 138 159 1,600 -176 Descending FlightAware ADS-B

Login

Don't have an account? Register now (free) for customized features, flight alerts, and more!